Time;durP1;ratioP1;P1;durP2;ratioP2;P2;SDS_P1;SDS_P2;PMS_P1;PMS_P2;Temp;Humidity;BMP_temperature;BMP_pressure;BME280_temperature;BME280_humidity;BME280_pressure;Samples;Min_cycle;Max_cycle;Signal;HPM_P1;HPM_P2
2021/11/03 00:01:09;;;;;;;2.17;2.07;;;5.70;99.90;;;;;;4936755;29;20508;-74
2021/11/03 00:03:34;;;;;;;2.63;2.40;;;5.70;99.90;;;;;;4936335;29;20456;-74
2021/11/03 00:06:01;;;;;;;11.50;2.90;;;5.70;99.90;;;;;;4936754;29;20875;-73
2021/11/03 00:08:28;;;;;;;2.70;2.13;;;5.80;99.90;;;;;;4936521;29;20264;-74
2021/11/03 00:10:54;;;;;;;5.03;2.80;;;5.80;99.90;;;;;;4936662;29;20413;-74
2021/11/03 00:13:23;;;;;;;3.43;3.13;;;5.80;99.90;;;;;;4936143;29;20577;-73
2021/11/03 00:15:49;;;;;;;3.30;2.73;;;5.90;99.90;;;;;;4951668;29;20665;-74
2021/11/03 00:18:15;;;;;;;3.93;3.27;;;6.00;99.90;;;;;;4936153;29;20463;-74
2021/11/03 00:20:40;;;;;;;4.83;2.63;;;6.00;99.90;;;;;;4936507;29;20416;-74
2021/11/03 00:23:07;;;;;;;3.47;3.23;;;6.00;99.90;;;;;;4936120;29;20396;-74
2021/11/03 00:25:37;;;;;;;5.00;3.00;;;6.10;99.90;;;;;;4936378;29;20176;-74
2021/11/03 00:28:03;;;;;;;3.53;3.23;;;6.10;99.90;;;;;;4936355;29;20421;-74
2021/11/03 00:30:29;;;;;;;3.07;2.87;;;6.10;99.90;;;;;;4936330;29;20472;-74
2021/11/03 00:32:54;;;;;;;2.97;2.77;;;6.10;99.90;;;;;;4935925;29;20467;-74
2021/11/03 00:35:20;;;;;;;3.63;2.70;;;6.10;99.90;;;;;;4936207;29;20239;-73
2021/11/03 00:37:45;;;;;;;3.03;2.53;;;6.10;99.90;;;;;;4936076;29;20237;-74
2021/11/03 00:40:12;;;;;;;2.70;2.57;;;6.20;99.90;;;;;;4936221;29;20256;-73
2021/11/03 00:42:38;;;;;;;5.17;2.03;;;6.20;99.90;;;;;;4935650;29;20194;-73
2021/11/03 00:45:04;;;;;;;4.20;3.20;;;6.30;99.90;;;;;;4936130;29;20410;-74
2021/11/03 00:47:30;;;;;;;3.10;2.60;;;6.30;99.90;;;;;;4935686;29;20400;-73
2021/11/03 00:49:55;;;;;;;5.03;2.63;;;6.30;99.90;;;;;;4936008;29;20399;-74
2021/11/03 00:52:21;;;;;;;3.53;3.23;;;6.40;99.90;;;;;;4935456;29;20199;-74
2021/11/03 00:54:48;;;;;;;5.03;2.70;;;6.40;99.90;;;;;;4935676;29;20191;-74
2021/11/03 00:57:14;;;;;;;5.93;3.00;;;6.40;99.90;;;;;;4935658;29;20177;-73
2021/11/03 00:59:39;;;;;;;7.27;2.70;;;6.40;99.90;;;;;;4935544;29;21047;-73
2021/11/03 05:31:21;;;;;;;4.20;3.90;;;6.50;99.90;;;;;;5685407;23;20533;-73
2021/11/03 05:33:47;;;;;;;7.60;4.10;;;6.60;99.90;;;;;;4969584;28;20423;-75
2021/11/03 05:36:22;;;;;;;7.23;4.27;;;6.50;99.90;;;;;;4972801;28;20669;-74
2021/11/03 05:38:47;;;;;;;5.97;4.20;;;6.50;99.90;;;;;;4973472;28;20235;-75
2021/11/03 05:41:13;;;;;;;7.57;4.57;;;6.50;99.90;;;;;;4972207;28;21011;-75
2021/11/03 05:43:39;;;;;;;7.47;5.07;;;6.50;99.90;;;;;;4973305;28;20607;-74
2021/11/03 05:46:06;;;;;;;4.43;4.10;;;6.50;99.90;;;;;;4963565;28;20522;-74
2021/11/03 05:48:33;;;;;;;9.77;4.87;;;6.60;99.90;;;;;;4973381;28;20189;-74
2021/11/03 05:50:59;;;;;;;5.80;5.03;;;6.50;99.90;;;;;;4973165;28;20406;-75
2021/11/03 05:53:25;;;;;;;5.50;4.73;;;6.50;99.90;;;;;;4973088;28;20416;-75
2021/11/03 05:55:50;;;;;;;7.33;5.47;;;6.60;99.90;;;;;;4973142;28;20580;-74
2021/11/03 05:58:16;;;;;;;11.33;5.77;;;6.60;99.90;;;;;;4972981;28;20204;-75
2021/11/03 06:00:41;;;;;;;8.97;5.60;;;6.60;99.90;;;;;;4973135;28;20187;-74
2021/11/03 06:03:07;;;;;;;9.00;5.80;;;6.60;99.90;;;;;;4972473;28;20184;-75
2021/11/03 06:05:33;;;;;;;6.90;5.20;;;6.60;99.90;;;;;;4973105;28;20179;-75
2021/11/03 06:08:02;;;;;;;12.23;6.27;;;6.60;99.90;;;;;;4972810;28;20540;-72
2021/11/03 06:10:34;;;;;;;6.83;5.73;;;6.60;99.90;;;;;;4972931;28;20392;-70
2021/11/03 06:13:00;;;;;;;6.87;5.47;;;6.60;99.90;;;;;;4971306;28;20446;-71
2021/11/03 06:15:27;;;;;;;8.93;5.70;;;6.70;99.90;;;;;;4972436;28;20962;-70
2021/11/03 06:17:53;;;;;;;14.40;5.43;;;6.70;99.90;;;;;;4972571;28;20184;-72
2021/11/03 06:20:20;;;;;;;5.10;4.60;;;6.70;99.90;;;;;;4972887;28;20419;-71
2021/11/03 06:22:45;;;;;;;6.13;5.53;;;6.80;99.90;;;;;;4972459;28;20211;-71
2021/11/03 06:25:13;;;;;;;5.23;4.70;;;6.70;99.90;;;;;;4972699;28;20412;-70
2021/11/03 06:27:39;;;;;;;8.73;5.50;;;6.80;99.90;;;;;;4972731;28;20218;-71
2021/11/03 06:30:07;;;;;;;8.07;5.30;;;6.80;99.90;;;;;;4972703;28;20419;-71
2021/11/03 06:32:35;;;;;;;6.67;4.60;;;6.80;99.90;;;;;;4972121;28;20458;-71
2021/11/03 06:35:01;;;;;;;7.13;5.43;;;6.80;99.90;;;;;;4972731;28;20421;-71
2021/11/03 06:37:26;;;;;;;7.53;5.17;;;6.80;99.90;;;;;;4972646;28;20396;-71
2021/11/03 06:39:52;;;;;;;5.70;5.07;;;6.80;99.90;;;;;;4972460;28;20859;-72
2021/11/03 06:42:18;;;;;;;10.03;7.13;;;6.80;99.90;;;;;;4972101;28;20199;-71
2021/11/03 06:44:43;;;;;;;7.93;4.80;;;6.90;99.90;;;;;;4972743;28;20176;-71
2021/11/03 06:47:09;;;;;;;8.07;5.40;;;6.90;99.90;;;;;;4972403;28;20172;-71
2021/11/03 06:49:35;;;;;;;8.00;5.03;;;6.90;99.90;;;;;;4972579;28;20602;-70
2021/11/03 06:52:00;;;;;;;4.77;4.47;;;6.90;99.90;;;;;;4972237;28;20202;-69
2021/11/03 06:54:26;;;;;;;6.50;4.83;;;7.00;99.90;;;;;;4976114;28;20523;-71
2021/11/03 06:56:52;;;;;;;7.13;5.43;;;7.00;99.90;;;;;;4976554;28;20172;-72
2021/11/03 06:59:19;;;;;;;6.77;4.87;;;7.00;99.90;;;;;;4976115;28;20218;-71
2021/11/03 07:01:46;;;;;;;4.43;4.03;;;7.10;99.90;;;;;;4976331;28;20434;-71
2021/11/03 07:04:12;;;;;;;6.13;5.43;;;7.10;99.90;;;;;;4975885;28;20412;-72
2021/11/03 07:06:38;;;;;;;5.10;4.70;;;7.10;99.90;;;;;;4976403;28;20412;-72
2021/11/03 07:09:04;;;;;;;6.03;5.03;;;7.20;99.90;;;;;;4975951;28;20442;-71
2021/11/03 07:11:29;;;;;;;6.07;4.70;;;7.20;99.90;;;;;;4976315;28;20241;-70
2021/11/03 07:13:56;;;;;;;8.27;5.50;;;7.20;99.90;;;;;;4975760;28;20189;-71
2021/11/03 07:16:22;;;;;;;5.70;5.20;;;7.30;99.90;;;;;;4973926;28;20191;-71
2021/11/03 07:18:48;;;;;;;7.13;4.80;;;7.30;99.90;;;;;;4975862;28;21020;-71
2021/11/03 07:21:14;;;;;;;4.93;4.53;;;7.30;99.90;;;;;;4975973;28;20271;-71
2021/11/03 07:23:39;;;;;;;7.30;4.33;;;7.40;99.90;;;;;;4975681;28;20224;-71
2021/11/03 07:26:05;;;;;;;5.10;4.33;;;7.40;99.90;;;;;;4975884;28;20444;-72
2021/11/03 07:28:31;;;;;;;7.93;4.10;;;7.40;99.90;;;;;;4975913;28;20653;-71
2021/11/03 07:30:56;;;;;;;4.97;4.00;;;7.40;99.90;;;;;;4975529;28;20217;-71
2021/11/03 07:33:22;;;;;;;6.00;4.60;;;7.50;99.90;;;;;;4975330;28;20191;-72
2021/11/03 07:35:48;;;;;;;5.37;4.13;;;7.50;99.90;;;;;;4975863;28;20248;-71
2021/11/03 07:38:14;;;;;;;8.07;5.30;;;7.60;99.90;;;;;;4975132;28;20460;-72
2021/11/03 07:40:50;;;;;;;6.37;4.97;;;7.60;99.90;;;;;;4975594;28;20272;-71
2021/11/03 07:43:19;;;;;;;5.10;4.60;;;7.60;99.90;;;;;;4975224;28;20463;-71
2021/11/03 07:45:46;;;;;;;5.37;4.27;;;7.70;99.90;;;;;;4975597;28;20416;-71
2021/11/03 07:48:12;;;;;;;7.67;4.50;;;7.70;99.90;;;;;;4975133;28;20426;-72
2021/11/03 07:50:47;;;;;;;5.10;3.90;;;7.70;99.90;;;;;;4974405;28;20414;-71
2021/11/03 07:53:15;;;;;;;10.17;3.87;;;7.80;99.90;;;;;;4974453;28;20508;-72
2021/11/03 07:55:43;;;;;;;4.87;3.27;;;7.90;99.90;;;;;;4975349;28;20989;-73
2021/11/03 07:58:13;;;;;;;3.67;3.03;;;8.00;99.90;;;;;;4975130;28;20575;-69
2021/11/03 08:00:38;;;;;;;10.50;3.50;;;8.10;99.90;;;;;;4975323;28;20420;-69
2021/11/03 08:03:04;;;;;;;5.73;3.73;;;8.20;99.90;;;;;;4974847;28;20521;-68
2021/11/03 08:05:29;;;;;;;2.60;2.40;;;8.30;99.90;;;;;;4974188;28;20182;-69
2021/11/03 08:07:57;;;;;;;5.07;2.70;;;8.30;99.90;;;;;;4975104;28;20242;-68
2021/11/03 08:10:24;;;;;;;3.23;2.70;;;8.40;99.90;;;;;;4975331;28;20281;-68
2021/11/03 08:12:52;;;;;;;8.10;3.20;;;8.50;99.90;;;;;;4974714;28;21030;-69
2021/11/03 08:15:18;;;;;;;3.47;2.20;;;8.50;99.90;;;;;;4975010;28;20418;-69
2021/11/03 08:17:44;;;;;;;5.27;2.90;;;8.50;99.90;;;;;;4974996;28;20414;-68
2021/11/03 08:20:15;;;;;;;3.20;2.87;;;8.50;99.90;;;;;;4974780;28;20219;-67
2021/11/03 08:22:41;;;;;;;7.73;3.77;;;8.50;99.90;;;;;;4974523;28;20440;-69
2021/11/03 08:25:07;;;;;;;6.00;3.53;;;8.60;99.90;;;;;;4974832;28;20788;-70
2021/11/03 08:27:33;;;;;;;5.93;3.37;;;8.70;99.90;;;;;;4975175;28;20222;-69
2021/11/03 08:29:59;;;;;;;14.17;5.23;;;8.70;99.90;;;;;;4974705;28;20417;-69
2021/11/03 08:32:29;;;;;;;6.20;4.33;;;8.80;99.90;;;;;;4974246;28;20304;-68
2021/11/03 08:34:55;;;;;;;5.93;4.17;;;8.80;99.90;;;;;;4974752;28;20473;-68
2021/11/03 08:37:26;;;;;;;7.23;4.67;;;8.80;99.90;;;;;;4974523;28;20482;-68
2021/11/03 08:39:53;;;;;;;6.20;3.90;;;8.70;99.90;;;;;;4975465;28;20443;-68
2021/11/03 08:42:19;;;;;;;7.83;3.90;;;8.80;99.90;;;;;;4974770;28;20433;-69
2021/11/03 08:44:46;;;;;;;6.53;3.90;;;8.80;99.90;;;;;;4975172;28;20410;-68
2021/11/03 08:47:12;;;;;;;6.93;5.03;;;8.80;99.90;;;;;;4974986;28;20787;-69
2021/11/03 08:49:38;;;;;;;6.83;4.13;;;8.80;99.90;;;;;;4974923;28;20422;-68
2021/11/03 08:52:05;;;;;;;7.20;4.67;;;8.90;99.90;;;;;;4974799;28;20286;-69
2021/11/03 08:54:38;;;;;;;6.70;4.43;;;8.90;99.90;;;;;;4974865;28;20442;-69
2021/11/03 08:57:04;;;;;;;7.13;4.17;;;8.90;99.90;;;;;;4974705;28;20440;-68
2021/11/03 08:59:30;;;;;;;3.20;2.97;;;9.00;99.90;;;;;;4974082;28;20465;-68
2021/11/03 09:01:56;;;;;;;5.90;4.33;;;8.90;99.90;;;;;;4974789;28;20413;-69
2021/11/03 09:04:21;;;;;;;6.10;4.57;;;9.00;99.90;;;;;;4973892;28;20422;-69
2021/11/03 09:06:47;;;;;;;4.73;4.23;;;9.00;99.90;;;;;;4974186;28;20563;-69
2021/11/03 09:09:13;;;;;;;7.00;4.50;;;9.00;99.90;;;;;;4973709;28;20420;-69
2021/11/03 09:11:39;;;;;;;3.80;3.30;;;9.10;99.90;;;;;;4974038;28;20197;-70
2021/11/03 09:14:05;;;;;;;4.20;3.33;;;9.10;99.90;;;;;;4973324;28;20488;-69
2021/11/03 09:16:31;;;;;;;5.97;3.90;;;9.20;99.90;;;;;;4973836;28;20180;-69
2021/11/03 09:18:57;;;;;;;6.57;4.43;;;9.20;99.90;;;;;;4973626;28;20452;-69
2021/11/03 09:21:24;;;;;;;6.17;3.90;;;9.40;99.90;;;;;;4973726;28;20494;-70
2021/11/03 09:23:50;;;;;;;5.37;3.80;;;9.50;99.90;;;;;;4973389;28;20414;-69
2021/11/03 09:26:17;;;;;;;3.80;3.37;;;9.60;99.90;;;;;;4973671;28;20188;-69
2021/11/03 09:28:44;;;;;;;6.13;3.30;;;9.70;99.90;;;;;;4973510;28;20484;-68
2021/11/03 09:31:10;;;;;;;3.57;3.27;;;9.90;99.90;;;;;;4973296;28;20468;-69
2021/11/03 09:33:38;;;;;;;3.63;2.90;;;10.00;99.90;;;;;;4973457;28;20579;-69
2021/11/03 09:36:11;;;;;;;5.13;2.90;;;10.20;99.90;;;;;;4973336;28;20414;-69
2021/11/03 09:38:38;;;;;;;2.27;2.07;;;10.30;99.90;;;;;;4973501;28;20493;-69
2021/11/03 09:41:12;;;;;;;2.97;2.07;;;10.40;99.90;;;;;;4973288;28;20473;-69
2021/11/03 09:43:40;;;;;;;5.97;2.80;;;10.20;99.90;;;;;;4974563;28;20483;-68
2021/11/03 09:46:28;;;;;;;4.57;2.07;;;10.30;99.90;;;;;;4992464;28;20427;-69
2021/11/03 09:49:10;;;;;;;2.03;1.83;;;10.40;99.90;;;;;;4992590;28;20499;-68
2021/11/03 09:51:38;;;;;;;2.60;2.20;;;10.40;99.90;;;;;;4992533;28;20411;-69
2021/11/03 09:54:14;;;;;;;3.50;2.70;;;10.50;99.90;;;;;;4992201;28;20421;-69
2021/11/03 09:56:46;;;;;;;3.10;2.47;;;10.40;99.90;;;;;;4992268;28;20425;-70
2021/11/03 09:59:39;;;;;;;4.87;2.20;;;10.60;99.90;;;;;;4992067;28;20475;-69
2021/11/03 10:02:29;;;;;;;3.90;1.70;;;10.60;99.90;;;;;;4991636;28;20435;-69
2021/11/03 10:04:58;;;;;;;17.23;2.50;;;10.70;99.90;;;;;;4992608;28;20886;-69
2021/11/03 10:08:05;;;;;;;3.00;2.70;;;10.70;99.90;;;;;;4992318;28;20768;-68
2021/11/03 10:10:37;;;;;;;1.73;1.63;;;10.70;99.90;;;;;;4967420;28;20489;-69
2021/11/03 10:13:17;;;;;;;11.40;2.90;;;10.60;99.90;;;;;;4991643;28;20422;-69
2021/11/03 10:16:23;;;;;;;4.80;2.23;;;10.50;99.90;;;;;;4990941;28;20497;-69
2021/11/03 10:19:05;;;;;;;5.70;3.77;;;10.40;99.90;;;;;;4989777;28;20512;-69
2021/11/03 10:21:30;;;;;;;6.23;3.03;;;10.40;99.90;;;;;;4992141;28;20445;-69
2021/11/03 10:24:11;;;;;;;3.97;2.60;;;10.40;99.90;;;;;;4991804;28;20806;-69
2021/11/03 10:26:53;;;;;;;5.53;2.90;;;10.30;99.90;;;;;;4992251;28;20190;-69
2021/11/03 10:29:29;;;;;;;3.63;2.90;;;10.40;99.90;;;;;;4991655;28;20425;-69
2021/11/03 10:32:00;;;;;;;4.03;2.77;;;10.30;99.90;;;;;;4991952;28;20459;-67
2021/11/03 10:34:34;;;;;;;3.00;2.40;;;10.30;99.90;;;;;;4991812;28;20916;-69
2021/11/03 10:37:22;;;;;;;2.30;2.10;;;10.30;99.90;;;;;;4991855;28;20794;-69
2021/11/03 10:40:05;;;;;;;3.00;2.43;;;10.30;99.90;;;;;;4990666;28;20491;-69
2021/11/03 10:42:46;;;;;;;3.50;2.00;;;10.50;99.90;;;;;;4991704;28;20428;-68
2021/11/03 10:45:15;;;;;;;4.30;2.37;;;10.50;99.90;;;;;;4990469;28;20421;-69
2021/11/03 10:47:45;;;;;;;2.53;2.20;;;10.50;99.90;;;;;;4992060;28;20453;-71
2021/11/03 10:50:23;;;;;;;2.47;2.27;;;10.60;99.90;;;;;;4991752;28;20410;-72
2021/11/03 10:52:58;;;;;;;4.70;2.50;;;10.60;99.90;;;;;;4990339;28;20458;-71
2021/11/03 10:55:39;;;;;;;12.10;2.50;;;10.60;99.90;;;;;;4991893;28;20759;-71
2021/11/03 10:58:07;;;;;;;3.80;2.77;;;10.60;99.90;;;;;;4971327;28;20903;-72
2021/11/03 11:00:37;;;;;;;3.23;2.93;;;10.80;99.90;;;;;;4967063;28;20471;-71
2021/11/03 11:03:13;;;;;;;2.93;2.73;;;10.70;99.90;;;;;;4970910;28;20446;-71
2021/11/03 11:05:43;;;;;;;2.47;2.27;;;10.70;99.90;;;;;;4972143;28;20434;-70
2021/11/03 11:08:30;;;;;;;2.83;2.63;;;10.80;99.90;;;;;;4971845;28;20896;-70
2021/11/03 11:11:05;;;;;;;5.13;2.73;;;10.80;99.90;;;;;;4971108;28;20919;-71
2021/11/03 11:13:52;;;;;;;2.30;2.20;;;10.80;99.90;;;;;;4971445;28;20907;-71
2021/11/03 11:16:34;;;;;;;3.20;2.60;;;10.80;99.90;;;;;;4971990;28;20419;-71
2021/11/03 11:19:13;;;;;;;3.00;2.20;;;10.80;99.90;;;;;;4972301;28;20954;-71
2021/11/03 11:21:50;;;;;;;3.87;2.27;;;10.80;99.90;;;;;;4971209;28;20438;-71
2021/11/03 11:24:22;;;;;;;2.03;1.77;;;10.70;99.90;;;;;;4968464;28;20400;-70
2021/11/03 11:26:55;;;;;;;12.47;8.07;;;10.80;99.90;;;;;;4952916;28;20948;-68
2021/11/03 11:29:35;;;;;;;2.80;2.60;;;10.80;99.90;;;;;;4952860;28;20447;-68
2021/11/03 11:32:09;;;;;;;5.17;2.27;;;10.70;99.90;;;;;;4952979;29;20465;-67
2021/11/03 11:34:54;;;;;;;3.97;2.30;;;10.60;99.90;;;;;;4953328;28;20472;-71
2021/11/03 11:37:35;;;;;;;5.40;2.10;;;10.50;99.90;;;;;;4953432;28;20517;-71
2021/11/03 11:40:16;;;;;;;4.93;2.00;;;10.50;99.90;;;;;;4955466;28;20488;-71
2021/11/03 11:42:50;;;;;;;3.50;2.10;;;10.50;99.90;;;;;;4956558;28;20433;-71
2021/11/03 11:45:21;;;;;;;2.20;2.10;;;10.50;99.90;;;;;;4956631;28;20410;-68
2021/11/03 11:47:51;;;;;;;2.40;2.20;;;10.50;99.90;;;;;;4956133;28;20440;-69
2021/11/03 11:50:26;;;;;;;3.03;2.17;;;10.60;99.90;;;;;;4956356;28;20912;-68
2021/11/03 11:52:55;;;;;;;4.30;1.73;;;10.60;99.90;;;;;;4956229;28;20519;-71
2021/11/03 11:55:27;;;;;;;2.43;1.47;;;10.70;99.90;;;;;;4956358;28;20424;-69
2021/11/03 11:58:09;;;;;;;1.63;1.43;;;10.70;99.90;;;;;;4956073;28;20424;-68
2021/11/03 12:00:37;;;;;;;1.60;1.33;;;10.70;99.90;;;;;;4956139;28;20943;-68
2021/11/03 12:03:14;;;;;;;2.00;1.10;;;10.70;99.90;;;;;;4954753;28;20461;-69
2021/11/03 12:05:46;;;;;;;2.93;1.10;;;10.80;99.90;;;;;;4971183;28;20403;-69
2021/11/03 12:08:11;;;;;;;2.00;1.90;;;10.80;99.90;;;;;;4970707;28;20972;-68
2021/11/03 12:10:54;;;;;;;2.73;2.30;;;10.80;99.90;;;;;;4982093;28;20432;-69
2021/11/03 12:13:30;;;;;;;2.30;2.10;;;10.80;99.90;;;;;;4967498;28;20199;-68
2021/11/03 12:15:55;;;;;;;3.47;2.03;;;10.90;99.90;;;;;;4968659;28;20427;-68
2021/11/03 12:18:27;;;;;;;2.10;1.80;;;10.90;99.90;;;;;;4965048;28;20464;-68
2021/11/03 12:21:10;;;;;;;2.83;2.33;;;10.90;99.90;;;;;;4971156;28;20673;-68
2021/11/03 12:23:48;;;;;;;2.33;2.17;;;10.80;99.90;;;;;;4969883;28;20883;-68
2021/11/03 12:26:26;;;;;;;2.20;1.80;;;10.70;99.90;;;;;;4974622;28;20471;-68
2021/11/03 12:29:00;;;;;;;1.87;1.57;;;10.80;99.90;;;;;;4973469;28;20872;-68
2021/11/03 12:31:26;;;;;;;3.87;2.00;;;10.70;99.90;;;;;;4974727;28;20523;-68
2021/11/03 12:34:14;;;;;;;1.50;1.40;;;10.80;99.90;;;;;;4974508;28;20423;-68
2021/11/03 12:36:43;;;;;;;4.37;2.63;;;10.80;99.90;;;;;;4955607;28;20242;-69
2021/11/03 12:39:12;;;;;;;3.57;2.27;;;10.80;99.90;;;;;;4973126;28;20459;-68
2021/11/03 12:41:46;;;;;;;4.43;2.47;;;10.80;99.90;;;;;;4974568;28;20483;-68
2021/11/03 12:44:15;;;;;;;4.30;2.70;;;10.70;99.90;;;;;;4974141;28;20419;-67
2021/11/03 12:46:41;;;;;;;2.60;2.33;;;10.70;99.90;;;;;;4974480;28;20409;-68
2021/11/03 12:49:14;;;;;;;2.60;2.23;;;10.60;99.90;;;;;;4974267;28;20425;-69
2021/11/03 12:51:53;;;;;;;2.27;2.10;;;10.60;99.90;;;;;;4973833;28;20436;-69
2021/11/03 12:54:32;;;;;;;5.53;2.40;;;10.60;99.90;;;;;;4974030;28;21231;-70
2021/11/03 12:57:08;;;;;;;3.77;3.37;;;10.60;99.90;;;;;;4974199;28;20456;-69
2021/11/03 12:59:37;;;;;;;2.83;2.63;;;10.50;99.90;;;;;;4974187;28;20530;-68
2021/11/03 13:02:18;;;;;;;2.73;2.40;;;10.50;99.90;;;;;;4973927;28;20426;-69
2021/11/03 13:04:47;;;;;;;2.70;2.50;;;10.50;99.90;;;;;;4974243;28;20497;-69
2021/11/03 13:07:38;;;;;;;3.17;2.43;;;10.50;99.90;;;;;;4974038;28;20411;-68
2021/11/03 13:10:32;;;;;;;3.07;2.80;;;10.40;99.90;;;;;;4973895;28;20875;-69
2021/11/03 13:13:03;;;;;;;5.10;2.90;;;10.40;99.90;;;;;;4974788;28;20442;-69
2021/11/03 13:15:39;;;;;;;2.97;2.53;;;10.40;99.90;;;;;;4974106;28;20413;-68
2021/11/03 13:18:26;;;;;;;2.50;2.30;;;10.30;99.90;;;;;;4970978;28;20461;-69
2021/11/03 13:20:59;;;;;;;3.60;2.47;;;10.30;99.90;;;;;;4972583;28;20985;-68
2021/11/03 13:23:25;;;;;;;2.83;2.47;;;10.20;99.90;;;;;;4973001;28;20500;-70
2021/11/03 13:25:58;;;;;;;5.10;2.37;;;10.20;99.90;;;;;;4973051;28;20469;-68
2021/11/03 13:28:42;;;;;;;2.83;2.20;;;10.20;99.90;;;;;;4972534;28;20487;-69
2021/11/03 13:31:26;;;;;;;9.23;2.60;;;10.00;99.90;;;;;;4983300;28;20452;-69
2021/11/03 13:34:09;;;;;;;3.67;2.33;;;9.90;99.90;;;;;;4961770;28;20451;-70
2021/11/03 13:36:35;;;;;;;3.33;2.47;;;9.90;99.90;;;;;;4973302;28;20451;-69
2021/11/03 13:39:26;;;;;;;3.33;2.33;;;9.80;99.90;;;;;;4972604;28;20501;-71
2021/11/03 13:41:54;;;;;;;3.03;2.73;;;9.80;99.90;;;;;;4963157;28;20461;-69
2021/11/03 13:44:39;;;;;;;2.80;2.60;;;9.70;99.90;;;;;;4972237;28;20847;-69
2021/11/03 13:47:20;;;;;;;2.40;2.20;;;9.70;99.90;;;;;;4972845;28;20467;-67
2021/11/03 13:50:13;;;;;;;5.83;2.37;;;9.70;99.90;;;;;;4972612;28;20488;-69
2021/11/03 13:53:20;;;;;;;3.47;3.10;;;9.70;99.90;;;;;;4962468;28;20989;-68
2021/11/03 13:56:02;;;;;;;6.77;2.77;;;9.70;99.90;;;;;;4965715;28;20523;-66
2021/11/03 13:58:34;;;;;;;6.03;2.70;;;9.60;99.90;;;;;;4972645;28;20507;-69
2021/11/03 14:01:16;;;;;;;4.50;2.90;;;9.60;99.90;;;;;;4971965;28;20908;-69
2021/11/03 14:03:57;;;;;;;4.20;3.10;;;9.60;99.90;;;;;;4971653;28;20461;-69
2021/11/03 14:06:30;;;;;;;3.20;2.90;;;9.50;99.90;;;;;;4972643;28;20512;-68
2021/11/03 14:09:08;;;;;;;4.73;3.10;;;9.60;99.90;;;;;;4972122;28;20474;-68
2021/11/03 14:11:34;;;;;;;6.17;4.00;;;9.50;99.90;;;;;;4972448;28;20455;-68
2021/11/03 14:14:00;;;;;;;7.97;4.70;;;9.50;99.90;;;;;;4971464;28;20955;-68
2021/11/03 14:16:29;;;;;;;4.53;3.67;;;9.50;99.90;;;;;;4972256;28;20448;-68
2021/11/03 14:18:57;;;;;;;5.93;4.40;;;9.50;99.90;;;;;;4970953;28;20310;-68
2021/11/03 14:21:24;;;;;;;6.13;5.50;;;9.50;99.90;;;;;;4972070;28;20508;-68
2021/11/03 14:23:51;;;;;;;8.80;4.77;;;9.40;99.90;;;;;;4961405;28;20508;-68
2021/11/03 14:26:19;;;;;;;4.60;4.20;;;9.50;99.90;;;;;;4970855;28;20554;-68
2021/11/03 14:28:45;;;;;;;6.53;4.77;;;9.50;99.90;;;;;;4972184;28;20431;-68
2021/11/03 14:31:26;;;;;;;7.23;4.70;;;9.40;99.90;;;;;;4972062;28;20872;-69
2021/11/03 14:33:57;;;;;;;14.20;5.50;;;9.50;99.90;;;;;;4972480;28;20450;-68
2021/11/03 14:36:23;;;;;;;4.57;3.80;;;9.50;99.90;;;;;;4972615;28;20396;-69
2021/11/03 14:38:50;;;;;;;4.07;3.73;;;9.50;99.90;;;;;;4972571;28;20439;-68
2021/11/03 14:41:22;;;;;;;5.97;4.13;;;9.50;99.90;;;;;;4972425;28;20841;-68
2021/11/03 14:43:50;;;;;;;10.87;4.17;;;9.50;99.90;;;;;;4979498;28;20436;-68
2021/11/03 14:46:41;;;;;;;4.00;3.43;;;9.50;99.90;;;;;;4991601;28;20413;-69
2021/11/03 14:49:29;;;;;;;5.20;4.20;;;9.50;99.90;;;;;;4991468;28;20412;-68
2021/11/03 14:51:56;;;;;;;4.80;4.30;;;9.50;99.90;;;;;;4952373;28;20423;-68
2021/11/03 14:54:22;;;;;;;5.37;4.57;;;9.50;99.90;;;;;;4952612;29;20395;-70
2021/11/03 14:56:48;;;;;;;4.93;4.40;;;9.40;99.90;;;;;;4953486;28;20899;-69
2021/11/03 14:59:14;;;;;;;4.07;3.77;;;9.40;99.90;;;;;;4952740;29;21313;-69
2021/11/03 15:01:43;;;;;;;3.90;3.50;;;9.40;99.90;;;;;;4953093;29;20414;-69
2021/11/03 15:04:28;;;;;;;2.00;1.90;;;9.40;99.90;;;;;;4952903;29;20177;-69
2021/11/03 15:06:54;;;;;;;1.17;1.07;;;9.40;99.90;;;;;;4953352;29;20407;-68
2021/11/03 15:09:23;;;;;;;1.27;1.17;;;9.30;99.90;;;;;;4953043;29;20386;-68
2021/11/03 15:11:50;;;;;;;1.47;1.27;;;9.30;99.90;;;;;;4953147;29;20479;-69
2021/11/03 15:14:16;;;;;;;1.93;0.73;;;9.30;99.90;;;;;;4954453;28;20505;-68
2021/11/03 15:16:42;;;;;;;2.33;1.03;;;9.20;99.90;;;;;;4956941;29;20979;-68
2021/11/03 15:19:18;;;;;;;1.90;1.40;;;9.20;99.90;;;;;;4956471;29;20199;-68
2021/11/03 15:21:44;;;;;;;1.43;0.50;;;9.10;99.90;;;;;;4956778;29;20216;-68
2021/11/03 15:24:10;;;;;;;0.60;0.60;;;9.10;99.90;;;;;;4955697;28;20455;-68
2021/11/03 15:26:36;;;;;;;2.30;1.30;;;9.10;99.90;;;;;;4975618;28;20171;-69
2021/11/03 15:29:02;;;;;;;1.80;1.17;;;9.00;99.90;;;;;;4975664;28;20422;-69
2021/11/03 15:31:32;;;;;;;6.17;1.40;;;9.00;99.90;;;;;;4992331;28;20221;-69
2021/11/03 15:33:59;;;;;;;2.40;1.00;;;9.00;99.90;;;;;;4994893;28;20230;-68
2021/11/03 15:36:25;;;;;;;1.03;0.80;;;9.00;99.90;;;;;;4995061;28;20431;-69
2021/11/03 15:38:58;;;;;;;5.50;1.27;;;9.00;99.90;;;;;;4994813;28;20515;-69
2021/11/03 15:41:27;;;;;;;1.10;0.70;;;9.00;99.90;;;;;;4977040;28;20553;-69
2021/11/03 15:43:54;;;;;;;0.70;0.70;;;8.90;99.90;;;;;;4975357;28;20413;-68
2021/11/03 15:46:26;;;;;;;1.27;1.00;;;8.90;99.90;;;;;;4975363;28;20481;-68
2021/11/03 15:48:52;;;;;;;1.70;0.90;;;8.90;99.90;;;;;;4975540;28;20392;-69
2021/11/03 15:51:18;;;;;;;1.47;1.37;;;8.90;99.90;;;;;;4974031;28;20451;-69
2021/11/03 15:53:44;;;;;;;3.20;1.73;;;8.80;99.90;;;;;;4975226;28;20176;-68
2021/11/03 15:56:09;;;;;;;2.83;1.47;;;8.80;99.90;;;;;;4975283;28;20182;-69
2021/11/03 15:58:35;;;;;;;2.80;1.40;;;8.80;99.90;;;;;;4975243;28;20497;-69
2021/11/03 16:01:11;;;;;;;3.07;1.50;;;8.80;99.90;;;;;;4975099;28;20200;-68
2021/11/03 16:03:48;;;;;;;2.87;2.03;;;8.70;99.90;;;;;;4975053;28;20416;-68
2021/11/03 16:06:14;;;;;;;1.40;1.30;;;8.70;99.90;;;;;;4975098;28;20426;-70
2021/11/03 16:08:40;;;;;;;3.73;2.87;;;8.70;99.90;;;;;;4975273;28;20831;-70
2021/11/03 16:11:06;;;;;;;4.00;2.27;;;8.80;99.90;;;;;;4974849;28;20438;-68
2021/11/03 16:13:31;;;;;;;3.10;1.20;;;8.80;99.90;;;;;;4975018;28;20427;-68
2021/11/03 16:15:57;;;;;;;2.80;1.37;;;8.70;99.90;;;;;;4975025;28;20176;-68
2021/11/03 16:18:29;;;;;;;1.10;1.00;;;8.70;99.90;;;;;;4974846;28;20611;-70
2021/11/03 16:20:55;;;;;;;4.00;1.13;;;8.70;99.90;;;;;;4975037;28;20197;-70
2021/11/03 16:23:25;;;;;;;1.47;1.30;;;8.70;99.90;;;;;;4974558;28;20414;-70
2021/11/03 16:25:51;;;;;;;1.43;1.00;;;8.60;99.90;;;;;;4974081;28;20977;-71
2021/11/03 16:28:23;;;;;;;2.83;0.93;;;8.60;99.90;;;;;;4974638;28;20943;-72
2021/11/03 16:30:52;;;;;;;1.70;1.47;;;8.60;99.90;;;;;;4974832;28;20782;-70
2021/11/03 16:33:18;;;;;;;1.47;1.37;;;8.60;99.90;;;;;;4974302;28;20400;-71
2021/11/03 16:35:46;;;;;;;0.80;0.60;;;8.60;99.90;;;;;;4975140;28;20417;-72
2021/11/03 16:38:13;;;;;;;1.83;0.70;;;8.60;99.90;;;;;;4974242;28;20189;-71
2021/11/03 16:40:41;;;;;;;0.70;0.60;;;8.60;99.90;;;;;;4974611;28;20421;-70
2021/11/03 16:43:08;;;;;;;1.60;1.10;;;8.50;99.90;;;;;;4974033;28;20539;-71
2021/11/03 16:45:47;;;;;;;0.80;0.80;;;8.50;99.90;;;;;;4974597;28;20406;-71
2021/11/03 16:48:28;;;;;;;1.00;0.90;;;8.40;99.90;;;;;;4974242;28;20440;-71
2021/11/03 16:51:04;;;;;;;4.23;3.00;;;8.40;99.90;;;;;;4974535;28;20947;-71
2021/11/03 16:53:36;;;;;;;3.83;2.67;;;8.40;99.90;;;;;;4974017;28;20419;-71
2021/11/03 16:56:07;;;;;;;3.93;2.77;;;8.30;99.90;;;;;;4974301;28;20786;-71
2021/11/03 16:58:34;;;;;;;5.10;1.60;;;8.40;99.90;;;;;;4974244;28;20469;-71
2021/11/03 17:01:03;;;;;;;2.47;1.93;;;8.30;99.90;;;;;;4974056;28;20949;-70
2021/11/03 17:03:30;;;;;;;2.37;2.17;;;8.30;99.90;;;;;;4973869;28;20511;-71
2021/11/03 17:06:01;;;;;;;5.47;2.10;;;8.30;99.90;;;;;;4974239;28;20430;-71
2021/11/03 17:08:41;;;;;;;3.53;3.00;;;8.30;99.90;;;;;;4973992;28;20466;-71
2021/11/03 17:11:08;;;;;;;2.67;2.10;;;8.20;99.90;;;;;;4973968;28;20441;-71
2021/11/03 17:13:34;;;;;;;3.37;2.40;;;8.20;99.90;;;;;;4973749;28;20486;-71
2021/11/03 17:16:00;;;;;;;4.73;2.30;;;8.10;99.90;;;;;;4974006;28;20932;-71
2021/11/03 17:18:26;;;;;;;3.03;2.10;;;8.10;99.90;;;;;;4973728;28;20422;-71
2021/11/03 17:20:52;;;;;;;2.93;2.73;;;8.10;99.90;;;;;;4973999;28;20476;-71
2021/11/03 17:23:19;;;;;;;3.33;2.47;;;8.10;99.90;;;;;;4975196;28;20194;-71
2021/11/03 17:25:47;;;;;;;7.50;3.10;;;8.10;99.90;;;;;;4973474;28;20406;-72
2021/11/03 17:28:18;;;;;;;2.53;2.10;;;8.10;99.90;;;;;;4973656;28;20415;-72
2021/11/03 17:30:45;;;;;;;2.03;1.90;;;8.00;99.90;;;;;;4956510;28;20758;-72
2021/11/03 17:33:13;;;;;;;3.00;2.23;;;8.00;99.90;;;;;;4973428;28;20425;-71
2021/11/03 17:35:41;;;;;;;4.47;3.80;;;8.00;99.90;;;;;;4973913;28;20425;-72
2021/11/03 17:38:09;;;;;;;5.40;4.50;;;8.00;99.90;;;;;;4973395;28;20422;-72
2021/11/03 17:40:39;;;;;;;5.13;4.47;;;8.00;99.90;;;;;;4973251;28;20898;-71